Time;durP1;ratioP1;P1;durP2;ratioP2;P2;SDS_P1;SDS_P2;PMS_P1;PMS_P2;Temp;Humidity;BMP_temperature;BMP_pressure;BME280_temperature;BME280_humidity;BME280_pressure;Samples;Min_cycle;Max_cycle;Signal;HPM_P1;HPM_P2
2021/03/24 00:01:21;;;;;;;19.02;8.90;;;179.60;1740.80;;;;;;5040987;28;20071;-87
2021/03/24 00:03:47;;;;;;;16.98;8.65;;;179.60;1715.20;;;;;;5021917;28;20501;-78
2021/03/24 00:06:13;;;;;;;;;;;179.60;1740.80;;;;;;5026816;28;20025;-81
2021/03/24 00:08:39;;;;;;;16.20;8.50;;;179.60;1715.20;;;;;;5041904;28;19913;-80
2021/03/24 00:11:06;;;;;;;;;;;179.80;1740.80;;;;;;5040638;28;20017;-81
2021/03/24 00:13:32;;;;;;;25.85;9.05;;;179.60;1740.80;;;;;;5041393;28;19956;-80
2021/03/24 00:15:58;;;;;;;14.85;9.35;;;179.50;1740.80;;;;;;5025864;28;20492;-84
2021/03/24 00:18:24;;;;;;;15.88;7.80;;;179.60;1740.80;;;;;;5037242;28;20045;-79
2021/03/24 00:20:50;;;;;;;;;;;179.60;1740.80;;;;;;5042484;28;20025;-79
2021/03/24 00:23:16;;;;;;;15.05;7.90;;;179.70;1740.80;;;;;;5041666;28;19947;-79
2021/03/24 00:25:42;;;;;;;15.23;8.25;;;179.60;1740.80;;;;;;5039633;28;20388;-79
2021/03/24 00:28:08;;;;;;;;;;;179.50;1740.80;;;;;;5027654;28;20444;-79
2021/03/24 00:30:38;;;;;;;17.60;8.53;;;179.60;1740.80;;;;;;5040483;28;20007;-80
2021/03/24 00:33:05;;;;;;;14.23;7.75;;;179.60;1740.80;;;;;;5025268;28;20342;-79
2021/03/24 00:35:30;;;;;;;19.35;8.75;;;179.60;1766.40;;;;;;5026205;28;20029;-80
2021/03/24 00:37:56;;;;;;;;;;;179.60;1740.80;;;;;;5041621;28;20552;-79
2021/03/24 00:40:32;;;;;;;18.55;9.75;;;179.60;1766.40;;;;;;5021954;28;20004;-78
2021/03/24 00:42:58;;;;;;;16.33;8.45;;;179.50;1766.40;;;;;;5042069;28;20021;-79
2021/03/24 00:45:24;;;;;;;18.30;9.48;;;179.20;1766.40;;;;;;5025121;28;20136;-79
2021/03/24 00:47:50;;;;;;;19.05;9.05;;;179.60;1766.40;;;;;;5028149;28;20017;-79
2021/03/24 00:50:17;;;;;;;;;;;179.70;1792.00;;;;;;5023357;28;20044;-78
2021/03/24 00:52:43;;;;;;;13.52;7.55;;;179.50;1817.60;;;;;;5025453;28;20351;-78
2021/03/24 00:55:09;;;;;;;;;;;179.60;1843.20;;;;;;5016574;28;20121;-82
2021/03/24 00:57:34;;;;;;;19.35;9.18;;;179.60;1843.20;;;;;;5046680;28;20285;-79
2021/03/24 01:00:00;;;;;;;;;;;179.60;1843.20;;;;;;5032978;28;20034;-79
2021/03/24 01:02:26;;;;;;;15.85;9.30;;;179.60;1920.00;;;;;;5030615;28;19909;-78
2021/03/24 01:04:51;;;;;;;;;;;179.50;1971.20;;;;;;5014416;28;20025;-85
2021/03/24 01:07:18;;;;;;;18.25;8.95;;;179.50;1971.20;;;;;;5019425;28;19905;-78
2021/03/24 01:09:44;;;;;;;17.08;8.82;;;179.50;1996.80;;;;;;5012655;28;20094;-86
2021/03/24 01:12:10;;;;;;;16.90;9.63;;;179.40;2048.00;;;;;;4994829;28;20451;-79
2021/03/24 01:14:36;;;;;;;;;;;179.30;2048.00;;;;;;4996621;28;20017;-79
2021/03/24 01:17:03;;;;;;;16.63;10.52;;;179.30;2099.20;;;;;;5012293;28;19917;-85
2021/03/24 01:19:28;;;;;;;19.98;11.32;;;179.20;2150.40;;;;;;5012165;28;20041;-79
2021/03/24 01:21:54;;;;;;;20.33;11.68;;;154.40;2176.00;;;;;;5016233;28;20030;-83
2021/03/24 01:24:20;;;;;;;;;;;154.50;2176.00;;;;;;5030613;28;20466;-79
2021/03/24 01:26:45;;;;;;;17.95;10.60;;;154.30;2227.20;;;;;;5014798;28;20246;-80
2021/03/24 01:29:11;;;;;;;;;;;154.10;2252.80;;;;;;5019762;28;20385;-81
2021/03/24 01:31:36;;;;;;;21.33;10.65;;;154.00;2252.80;;;;;;5016763;28;19912;-79
2021/03/24 01:34:02;;;;;;;;;;;154.00;2252.80;;;;;;5041830;28;20097;-79
2021/03/24 01:36:29;;;;;;;19.98;10.55;;;154.10;2252.80;;;;;;5025128;28;19960;-79
2021/03/24 01:38:55;;;;;;;20.48;11.07;;;154.10;2252.80;;;;;;5032170;28;20024;-79
2021/03/24 01:41:24;;;;;;;19.73;11.35;;;154.10;2252.80;;;;;;5054458;28;20025;-79
2021/03/24 01:43:50;;;;;;;21.23;10.68;;;154.10;2227.20;;;;;;5044711;28;20113;-79
2021/03/24 01:46:18;;;;;;;21.52;12.15;;;154.20;2201.60;;;;;;5044864;28;20065;-79
2021/03/24 01:48:58;;;;;;;21.67;11.20;;;154.10;2227.20;;;;;;5046630;28;20028;-79
2021/03/24 01:51:36;;;;;;;22.42;12.65;;;154.30;2176.00;;;;;;5041806;28;20457;-78
2021/03/24 01:54:03;;;;;;;18.70;10.50;;;154.10;2201.60;;;;;;5032657;28;20105;-78
2021/03/24 01:56:30;;;;;;;23.95;13.05;;;154.10;2201.60;;;;;;5021958;28;20044;-78
2021/03/24 01:58:57;;;;;;;21.63;10.30;;;154.10;2176.00;;;;;;5044204;28;20017;-78
2021/03/24 02:01:25;;;;;;;18.52;10.95;;;154.10;2176.00;;;;;;5042993;28;20017;-77
2021/03/24 02:03:52;;;;;;;16.05;10.13;;;154.10;2176.00;;;;;;5025335;28;20076;-78
2021/03/24 02:06:45;;;;;;;18.15;10.27;;;154.20;2150.40;;;;;;5042542;28;20025;-77
2021/03/24 02:09:50;;;;;;;19.45;10.15;;;154.20;2150.40;;;;;;5038638;28;20025;-78
2021/03/24 02:12:15;;;;;;;18.02;10.88;;;154.40;2124.80;;;;;;5046120;28;20024;-82
2021/03/24 02:14:45;;;;;;;;;;;154.30;2099.20;;;;;;5041146;28;20375;-79
2021/03/24 02:17:12;;;;;;;21.13;11.18;;;154.30;2099.20;;;;;;5041761;28;19917;-83
2021/03/24 02:19:46;;;;;;;20.40;10.85;;;154.10;2150.40;;;;;;5042840;28;20063;-81
2021/03/24 02:22:17;;;;;;;24.98;12.63;;;154.20;2099.20;;;;;;5032315;28;20045;-83
2021/03/24 02:25:04;;;;;;;21.20;11.77;;;154.10;2124.80;;;;;;5045201;28;20160;-78
2021/03/24 02:27:35;;;;;;;15.75;9.88;;;154.00;2124.80;;;;;;5014971;28;20038;-81
2021/03/24 02:30:25;;;;;;;20.10;11.82;;;154.00;2124.80;;;;;;5014590;28;20113;-78
2021/03/24 02:32:56;;;;;;;19.42;12.02;;;154.00;2124.80;;;;;;5003395;28;20030;-81
2021/03/24 02:35:29;;;;;;;20.58;10.88;;;153.90;2124.80;;;;;;5019340;28;20018;-79
2021/03/24 02:37:59;;;;;;;20.23;11.70;;;154.00;2124.80;;;;;;5019332;28;20034;-80
2021/03/24 02:40:26;;;;;;;22.90;12.23;;;154.10;2099.20;;;;;;5000826;28;20049;-81
2021/03/24 02:42:53;;;;;;;20.80;11.52;;;154.20;2124.80;;;;;;4998961;28;20040;-80
2021/03/24 02:45:24;;;;;;;21.90;11.13;;;154.00;2124.80;;;;;;5004126;28;20029;-80
2021/03/24 02:48:11;;;;;;;20.73;11.75;;;154.00;2124.80;;;;;;5003696;28;20087;-77
2021/03/24 02:50:40;;;;;;;24.58;12.10;;;153.90;2124.80;;;;;;5021029;28;20022;-79
2021/03/24 02:53:07;;;;;;;21.42;11.55;;;153.90;2099.20;;;;;;5019620;28;20130;-82
2021/03/24 02:55:34;;;;;;;17.17;10.70;;;154.00;2099.20;;;;;;5000040;28;20026;-79
2021/03/24 02:58:00;;;;;;;24.17;11.77;;;154.10;2073.60;;;;;;5024671;28;20902;-79
2021/03/24 03:00:26;;;;;;;;;;;154.10;2073.60;;;;;;5017796;28;20512;-86
2021/03/24 03:02:57;;;;;;;21.90;12.13;;;154.20;2048.00;;;;;;5016899;28;19905;-80
2021/03/24 03:05:28;;;;;;;21.40;11.60;;;154.30;2022.40;;;;;;5016973;28;20029;-80
2021/03/24 03:08:05;;;;;;;25.60;11.30;;;154.10;2048.00;;;;;;5016542;28;20080;-79
2021/03/24 03:10:47;;;;;;;19.13;12.23;;;154.10;2048.00;;;;;;5018773;28;20030;-79
2021/03/24 03:13:20;;;;;;;22.80;12.15;;;154.20;2048.00;;;;;;5018168;28;20025;-80
2021/03/24 03:16:01;;;;;;;20.08;11.63;;;154.10;2048.00;;;;;;5036932;28;20033;-82
2021/03/24 03:18:32;;;;;;;19.30;11.05;;;154.20;2022.40;;;;;;5031645;28;20148;-79
2021/03/24 03:21:03;;;;;;;21.90;11.75;;;154.10;2073.60;;;;;;5034842;28;20568;-80
2021/03/24 03:23:31;;;;;;;20.27;11.57;;;154.10;2073.60;;;;;;5034619;28;20489;-80
2021/03/24 03:26:13;;;;;;;17.38;11.65;;;154.20;2048.00;;;;;;5034293;28;20113;-81
2021/03/24 03:28:43;;;;;;;24.02;13.43;;;154.10;2073.60;;;;;;5034042;28;20034;-80
2021/03/24 03:31:14;;;;;;;21.52;11.77;;;154.10;2073.60;;;;;;5033224;28;20120;-79
2021/03/24 03:33:44;;;;;;;19.58;11.38;;;154.00;2099.20;;;;;;5034214;28;20112;-80
2021/03/24 03:36:12;;;;;;;21.75;12.77;;;154.10;2099.20;;;;;;5034875;28;20025;-81
2021/03/24 03:38:39;;;;;;;22.70;13.15;;;154.10;2099.20;;;;;;5033281;28;20037;-82
2021/03/24 03:41:08;;;;;;;22.90;12.27;;;154.20;2124.80;;;;;;5033001;28;20021;-79
2021/03/24 03:43:35;;;;;;;24.13;12.63;;;154.20;2099.20;;;;;;5032700;28;20039;-83
2021/03/24 03:46:02;;;;;;;21.67;13.13;;;154.20;2099.20;;;;;;5032308;28;20018;-80
2021/03/24 03:48:27;;;;;;;19.48;12.45;;;154.10;2124.80;;;;;;5032272;28;20034;-81
2021/03/24 03:50:55;;;;;;;;;;;154.10;2124.80;;;;;;5032568;28;20083;-81
2021/03/24 03:53:22;;;;;;;;;;;154.00;2124.80;;;;;;5033074;28;19966;-87
2021/03/24 03:55:48;;;;;;;20.08;12.27;;;153.90;2124.80;;;;;;5034072;28;19951;-80
2021/03/24 03:58:34;;;;;;;;;;;154.00;2099.20;;;;;;5033765;28;20072;-81
2021/03/24 04:01:05;;;;;;;19.90;12.48;;;154.00;2124.80;;;;;;5033215;28;19905;-85
2021/03/24 04:03:56;;;;;;;22.23;13.48;;;153.90;2150.40;;;;;;5016158;28;20047;-81
2021/03/24 04:06:37;;;;;;;23.63;14.63;;;153.90;2176.00;;;;;;4953470;29;20046;-80
2021/03/24 04:09:05;;;;;;;22.05;13.15;;;153.80;2176.00;;;;;;4954063;29;20360;-79
2021/03/24 04:11:35;;;;;;;21.98;12.70;;;153.80;2176.00;;;;;;4953303;29;20058;-79
2021/03/24 04:14:08;;;;;;;23.85;13.93;;;153.80;2176.00;;;;;;4956544;29;20110;-80
2021/03/24 04:16:38;;;;;;;22.80;12.20;;;153.90;2150.40;;;;;;4954452;29;20066;-81
2021/03/24 04:19:07;;;;;;;24.15;13.52;;;153.80;2150.40;;;;;;4954489;29;20178;-79
2021/03/24 04:21:36;;;;;;;23.55;12.77;;;153.90;2150.40;;;;;;4954375;29;20037;-79
2021/03/24 04:24:24;;;;;;;22.27;12.93;;;153.90;2150.40;;;;;;4956853;29;20068;-82
2021/03/24 04:26:54;;;;;;;19.90;12.38;;;154.00;2124.80;;;;;;4955608;29;20459;-81
2021/03/24 04:29:26;;;;;;;22.98;12.73;;;154.10;2124.80;;;;;;4954575;29;20510;-82
2021/03/24 04:31:59;;;;;;;20.52;13.25;;;154.10;2099.20;;;;;;4953559;29;20032;-80
2021/03/24 04:34:26;;;;;;;22.65;12.45;;;154.00;2124.80;;;;;;4952224;29;20495;-81
2021/03/24 04:37:05;;;;;;;23.50;12.40;;;154.00;2150.40;;;;;;4952817;29;20150;-82
2021/03/24 04:39:47;;;;;;;20.10;12.80;;;154.10;2124.80;;;;;;4952178;29;20023;-83
2021/03/24 04:42:27;;;;;;;25.27;13.52;;;154.10;2099.20;;;;;;4954457;28;20042;-79
2021/03/24 04:44:56;;;;;;;23.48;12.45;;;154.10;2124.80;;;;;;5031536;28;20037;-86
2021/03/24 04:47:32;;;;;;;23.70;13.10;;;154.10;2124.80;;;;;;5031096;28;20021;-79
2021/03/24 04:50:06;;;;;;;25.67;14.73;;;154.30;2099.20;;;;;;5031535;28;20089;-79
2021/03/24 04:52:34;;;;;;;38.95;17.15;;;154.30;2124.80;;;;;;5031131;28;20076;-79
2021/03/24 04:55:07;;;;;;;31.45;16.38;;;154.50;2099.20;;;;;;5031531;28;20060;-81
2021/03/24 04:57:34;;;;;;;27.02;15.35;;;179.20;2073.60;;;;;;5026844;28;20050;-82
2021/03/24 05:00:28;;;;;;;29.10;15.90;;;179.20;2099.20;;;;;;5011860;28;20026;-82
2021/03/24 05:02:59;;;;;;;24.85;14.07;;;179.20;2099.20;;;;;;5011754;28;20026;-82
2021/03/24 05:05:27;;;;;;;24.55;13.57;;;154.40;2124.80;;;;;;5012097;28;20544;-81
2021/03/24 05:08:07;;;;;;;25.30;14.07;;;154.50;2124.80;;;;;;5011827;28;20022;-84
2021/03/24 05:10:34;;;;;;;22.35;13.23;;;154.30;2124.80;;;;;;5012806;28;20030;-81
2021/03/24 05:12:59;;;;;;;24.52;15.15;;;154.20;2150.40;;;;;;5028539;28;20026;-82
2021/03/24 05:15:27;;;;;;;;;;;154.20;2150.40;;;;;;5028678;28;20104;-81
2021/03/24 05:17:55;;;;;;;25.80;12.95;;;154.20;2150.40;;;;;;5013134;28;19921;-87
2021/03/24 05:20:21;;;;;;;21.98;11.30;;;154.20;2150.40;;;;;;5012963;28;20109;-83
2021/03/24 05:22:47;;;;;;;;;;;154.10;2176.00;;;;;;5012358;28;20061;-83
2021/03/24 05:25:12;;;;;;;18.35;10.63;;;154.10;2176.00;;;;;;5012753;28;20258;-83
2021/03/24 05:27:40;;;;;;;;;;;154.10;2176.00;;;;;;5012475;28;20501;-83
2021/03/24 05:30:26;;;;;;;20.55;11.65;;;154.10;2176.00;;;;;;5011616;28;19952;-87
2021/03/24 05:33:00;;;;;;;22.55;11.50;;;154.20;2176.00;;;;;;4995459;28;20030;-82
2021/03/24 05:35:36;;;;;;;20.15;11.45;;;154.00;2176.00;;;;;;4997181;28;20022;-82
2021/03/24 05:38:05;;;;;;;15.80;9.55;;;153.90;2176.00;;;;;;5015924;28;20041;-81
2021/03/24 05:41:20;;;;;;;20.55;12.25;;;153.80;2201.60;;;;;;5000277;28;20048;-81
2021/03/24 05:44:17;;;;;;;24.63;13.60;;;154.00;2176.00;;;;;;4976232;28;20031;-81
2021/03/24 05:47:00;;;;;;;23.08;12.43;;;154.00;2176.00;;;;;;4976234;28;20043;-81
2021/03/24 05:49:49;;;;;;;21.88;12.88;;;154.00;2176.00;;;;;;4978332;28;20030;-81
2021/03/24 05:52:26;;;;;;;22.98;12.15;;;154.20;2150.40;;;;;;4922105;29;20036;-80
2021/03/24 05:55:00;;;;;;;24.95;12.23;;;154.20;2150.40;;;;;;4921731;29;20052;-81
2021/03/24 05:57:38;;;;;;;22.90;12.48;;;154.10;2176.00;;;;;;4918983;29;20062;-81
2021/03/24 06:00:09;;;;;;;21.60;12.77;;;154.20;2124.80;;;;;;4919171;29;20070;-80
2021/03/24 06:02:47;;;;;;;24.35;12.35;;;154.20;2150.40;;;;;;4918022;29;20044;-79
2021/03/24 06:05:28;;;;;;;22.35;13.73;;;154.30;2124.80;;;;;;4917216;29;20028;-79
2021/03/24 06:08:11;;;;;;;20.67;12.43;;;154.10;2150.40;;;;;;4900951;29;20033;-78
2021/03/24 06:10:46;;;;;;;23.48;13.00;;;154.30;2124.80;;;;;;4916890;29;20040;-78
2021/03/24 06:13:30;;;;;;;23.92;13.48;;;154.20;2124.80;;;;;;4917096;29;20558;-78
2021/03/24 06:16:26;;;;;;;19.02;11.55;;;154.10;2150.40;;;;;;4917160;29;20543;-79
2021/03/24 06:19:36;;;;;;;29.80;14.18;;;154.10;2176.00;;;;;;4911832;29;20676;-78
2021/03/24 06:22:32;;;;;;;25.02;12.13;;;154.20;2150.40;;;;;;4938333;29;20031;-78
2021/03/24 06:25:19;;;;;;;19.95;12.23;;;154.30;2124.80;;;;;;4977487;28;20062;-78
2021/03/24 06:28:10;;;;;;;16.92;9.52;;;154.40;2124.80;;;;;;4973617;28;20419;-77
2021/03/24 06:31:10;;;;;;;21.52;11.43;;;154.30;2124.80;;;;;;5034686;28;20480;-78
2021/03/24 06:34:05;;;;;;;18.52;10.05;;;154.30;2150.40;;;;;;5034761;28;20025;-78
2021/03/24 06:36:46;;;;;;;19.17;11.10;;;154.20;2124.80;;;;;;5034439;28;20461;-76
2021/03/24 06:39:39;;;;;;;22.50;11.43;;;154.30;2150.40;;;;;;5024237;28;20029;-77
2021/03/24 06:42:46;;;;;;;22.17;12.65;;;154.40;2124.80;;;;;;5027413;28;20052;-78
2021/03/24 06:45:36;;;;;;;24.17;13.75;;;154.40;2124.80;;;;;;5016879;28;20026;-77
2021/03/24 06:48:05;;;;;;;22.23;13.27;;;154.20;2150.40;;;;;;5033683;28;20029;-77
2021/03/24 06:51:03;;;;;;;24.95;13.73;;;154.40;2150.40;;;;;;5034136;28;20025;-78
2021/03/24 06:53:58;;;;;;;18.85;11.05;;;154.30;2176.00;;;;;;5034082;28;20551;-78
2021/03/24 06:56:35;;;;;;;22.10;13.05;;;154.30;2176.00;;;;;;4953838;29;20039;-78
2021/03/24 06:59:33;;;;;;;19.98;11.85;;;154.40;2176.00;;;;;;4942146;29;20059;-78
2021/03/24 07:01:59;;;;;;;21.83;11.57;;;154.40;2176.00;;;;;;4937886;29;20046;-76
2021/03/24 07:04:28;;;;;;;;;;;154.50;2201.60;;;;;;4954268;29;20035;-77
2021/03/24 07:07:24;;;;;;;24.60;12.48;;;154.50;2176.00;;;;;;4954173;28;19957;-75
2021/03/24 07:10:19;;;;;;;21.15;12.95;;;154.40;2201.60;;;;;;4953606;29;20031;-78
2021/03/24 07:13:37;;;;;;;21.55;11.15;;;154.40;2201.60;;;;;;4954812;29;20067;-75
2021/03/24 07:16:20;;;;;;;24.88;13.10;;;154.40;2176.00;;;;;;4949638;29;20023;-77
2021/03/24 07:18:52;;;;;;;22.38;13.25;;;154.50;2176.00;;;;;;4955097;28;20121;-74
2021/03/24 07:21:29;;;;;;;25.65;14.32;;;154.40;2201.60;;;;;;4956602;28;20526;-77
2021/03/24 07:23:58;;;;;;;26.88;15.15;;;154.20;2227.20;;;;;;4972590;28;20031;-76
2021/03/24 07:26:47;;;;;;;26.77;14.48;;;154.40;2201.60;;;;;;4972742;28;20035;-78
2021/03/24 07:29:24;;;;;;;25.38;14.77;;;154.50;2201.60;;;;;;4896974;29;20044;-81
2021/03/24 07:32:31;;;;;;;27.65;13.27;;;154.50;2227.20;;;;;;4896652;29;20040;-82
2021/03/24 07:35:18;;;;;;;22.70;12.68;;;179.20;2201.60;;;;;;4846186;29;20038;-82
2021/03/24 07:38:12;;;;;;;20.58;11.57;;;179.20;2201.60;;;;;;4860925;29;20098;-86
2021/03/24 07:41:15;;;;;;;17.98;11.10;;;154.50;2176.00;;;;;;4860592;29;20046;-77
2021/03/24 07:43:45;;;;;;;21.52;12.32;;;179.30;2176.00;;;;;;4858656;29;20039;-78
2021/03/24 07:46:44;;;;;;;18.88;10.13;;;179.20;2201.60;;;;;;4858906;29;20049;-77
2021/03/24 07:49:41;;;;;;;23.08;11.13;;;179.30;2150.40;;;;;;4858788;29;20064;-78
2021/03/24 07:52:25;;;;;;;15.95;9.68;;;179.40;2124.80;;;;;;4858849;29;20116;-79
2021/03/24 07:55:15;;;;;;;14.50;9.18;;;179.40;2124.80;;;;;;4858591;29;20471;-78
2021/03/24 07:57:55;;;;;;;15.75;8.95;;;179.40;2124.80;;;;;;4858537;29;20053;-77
2021/03/24 08:00:35;;;;;;;13.98;8.35;;;179.30;2073.60;;;;;;4858725;29;20113;-78
2021/03/24 08:03:13;;;;;;;17.23;9.45;;;179.30;2099.20;;;;;;4858420;29;20041;-78
2021/03/24 08:05:39;;;;;;;16.75;9.52;;;179.30;2099.20;;;;;;4877023;29;20078;-78
2021/03/24 08:08:10;;;;;;;;;;;179.40;2099.20;;;;;;4918622;29;20024;-79
2021/03/24 08:10:51;;;;;;;13.18;8.15;;;179.40;2099.20;;;;;;4940074;28;19905;-78
2021/03/24 08:13:31;;;;;;;14.68;8.75;;;179.70;2073.60;;;;;;5012307;28;20027;-78
2021/03/24 08:16:07;;;;;;;16.75;9.13;;;179.60;2073.60;;;;;;5011809;28;20026;-77
2021/03/24 08:19:14;;;;;;;17.97;10.33;;;179.60;2073.60;;;;;;5012470;28;20168;-77
2021/03/24 08:22:22;;;;;;;18.48;9.48;;;179.70;2099.20;;;;;;4995150;28;20018;-79
2021/03/24 08:24:53;;;;;;;15.18;7.63;;;179.80;2022.40;;;;;;5012349;28;20025;-77
2021/03/24 08:27:49;;;;;;;15.25;7.65;;;179.90;1996.80;;;;;;5024353;28;20505;-75
2021/03/24 08:30:56;;;;;;;17.05;9.07;;;179.80;1971.20;;;;;;5031552;28;20047;-77
2021/03/24 08:33:55;;;;;;;13.13;8.00;;;179.90;1996.80;;;;;;4936238;29;20526;-77
2021/03/24 08:36:59;;;;;;;21.17;9.88;;;180.10;1996.80;;;;;;4952257;28;20032;-77
2021/03/24 08:39:50;;;;;;;16.88;8.48;;;204.80;1945.60;;;;;;4952255;29;20079;-77
2021/03/24 08:43:00;;;;;;;12.15;7.68;;;204.90;1868.80;;;;;;4951781;28;20515;-78
2021/03/24 08:45:37;;;;;;;14.48;8.18;;;204.80;1868.80;;;;;;4913438;29;20054;-78
2021/03/24 08:48:11;;;;;;;14.07;7.93;;;179.90;1894.40;;;;;;4897540;29;20036;-75
2021/03/24 08:50:43;;;;;;;15.55;7.85;;;180.10;1868.80;;;;;;4913409;29;20044;-78
2021/03/24 08:53:42;;;;;;;15.48;8.40;;;179.90;1868.80;;;;;;4904871;29;20040;-87
2021/03/24 08:56:22;;;;;;;14.07;7.75;;;204.80;1843.20;;;;;;4894671;29;20064;-75
2021/03/24 08:59:13;;;;;;;13.63;7.82;;;204.90;1843.20;;;;;;4894928;29;20564;-77
2021/03/24 09:01:46;;;;;;;13.13;6.50;;;180.10;1817.60;;;;;;4821105;29;20047;-75
2021/03/24 09:04:23;;;;;;;14.30;7.13;;;180.10;1792.00;;;;;;4820708;29;20070;-75
2021/03/24 09:07:31;;;;;;;15.10;7.20;;;205.00;1766.40;;;;;;4820776;29;20054;-75
2021/03/24 09:10:23;;;;;;;11.95;7.05;;;205.00;1766.40;;;;;;4848490;29;20072;-78
2021/03/24 09:12:58;;;;;;;12.27;7.15;;;205.20;1740.80;;;;;;4894894;29;20441;-79
2021/03/24 09:15:40;;;;;;;13.55;7.45;;;205.10;1740.80;;;;;;4894694;29;20545;-76
2021/03/24 09:18:23;;;;;;;20.48;8.50;;;205.40;1664.00;;;;;;4893979;29;20083;-75
2021/03/24 09:21:21;;;;;;;13.38;7.20;;;205.60;1664.00;;;;;;4894203;29;20615;-76
2021/03/24 09:23:56;;;;;;;13.90;7.70;;;205.50;1689.60;;;;;;4916629;29;20028;-77
2021/03/24 09:26:40;;;;;;;14.30;6.40;;;205.40;1715.20;;;;;;4935729;29;20039;-80
2021/03/24 09:29:33;;;;;;;13.32;8.00;;;205.60;1612.80;;;;;;4942489;29;20027;-84
2021/03/24 09:32:21;;;;;;;15.73;6.97;;;230.50;1664.00;;;;;;4949378;29;20046;-77
2021/03/24 09:34:56;;;;;;;12.65;6.82;;;230.50;1664.00;;;;;;4955181;29;20058;-76
2021/03/24 09:37:37;;;;;;;11.45;6.10;;;230.70;1536.00;;;;;;4955227;29;20035;-87
2021/03/24 09:40:26;;;;;;;15.80;7.68;;;230.60;1587.20;;;;;;5015644;28;20022;-85
2021/03/24 09:42:54;;;;;;;13.98;7.97;;;230.90;1587.20;;;;;;5014703;28;20053;-82
2021/03/24 09:45:23;;;;;;;13.52;7.50;;;230.90;1561.60;;;;;;5014309;28;20445;-76
2021/03/24 09:48:04;;;;;;;12.38;6.43;;;231.10;1587.20;;;;;;4997808;28;20490;-78
2021/03/24 09:51:05;;;;;;;12.32;7.10;;;231.20;1484.80;;;;;;5006395;28;20038;-76
2021/03/24 09:53:32;;;;;;;14.23;7.13;;;256.20;1510.40;;;;;;4996063;28;20101;-77
2021/03/24 09:56:03;;;;;;;16.25;7.30;;;256.50;1484.80;;;;;;4978400;28;20131;-76
2021/03/24 09:58:44;;;;;;;13.60;7.43;;;256.60;1408.00;;;;;;4996042;28;20510;-79
2021/03/24 10:01:23;;;;;;;11.90;7.20;;;256.60;1459.20;;;;;;4994938;28;20029;-85
2021/03/24 10:04:20;;;;;;;16.60;7.18;;;256.80;1382.40;;;;;;5008195;28;20145;-87
2021/03/24 10:07:07;;;;;;;14.60;8.05;;;231.30;1484.80;;;;;;4996686;28;20034;-76
2021/03/24 10:09:46;;;;;;;;;;;256.20;1433.60;;;;;;5022796;28;20065;-89
2021/03/24 10:12:33;;;;;;;14.77;8.90;;;231.30;1484.80;;;;;;5022725;28;19905;-86
2021/03/24 10:15:34;;;;;;;18.85;9.90;;;256.30;1484.80;;;;;;5001351;28;20079;-76
2021/03/24 10:18:32;;;;;;;16.52;8.75;;;256.90;1459.20;;;;;;5035542;28;20041;-76
2021/03/24 10:21:10;;;;;;;11.68;6.57;;;281.60;1459.20;;;;;;4973547;28;20103;-77
2021/03/24 10:23:53;;;;;;;11.48;7.32;;;282.00;1382.40;;;;;;4958161;28;20030;-85
2021/03/24 10:26:32;;;;;;;11.98;7.75;;;256.80;1408.00;;;;;;4973919;28;20031;-82
2021/03/24 10:29:09;;;;;;;15.73;8.50;;;256.80;1408.00;;;;;;4957257;28;20028;-75
2021/03/24 10:31:45;;;;;;;11.65;7.38;;;282.20;1433.60;;;;;;4984531;28;20038;-75
2021/03/24 10:34:22;;;;;;;17.52;9.57;;;282.20;1356.80;;;;;;4976745;28;20474;-74
2021/03/24 10:36:57;;;;;;;11.60;7.22;;;281.70;1382.40;;;;;;4989306;28;20121;-76
2021/03/24 10:39:33;;;;;;;12.65;8.00;;;281.70;1408.00;;;;;;4973822;28;20039;-72
2021/03/24 10:42:02;;;;;;;16.60;10.13;;;256.90;1356.80;;;;;;4989137;28;20569;-74
2021/03/24 10:44:56;;;;;;;17.75;8.50;;;281.60;1433.60;;;;;;4982542;28;20394;-87
2021/03/24 10:47:42;;;;;;;12.30;8.20;;;256.40;1433.60;;;;;;4983082;28;20034;-74
2021/03/24 10:50:33;;;;;;;19.23;9.60;;;281.70;1408.00;;;;;;4981837;28;20068;-85
2021/03/24 10:53:05;;;;;;;18.40;9.90;;;282.40;1356.80;;;;;;4980395;28;20434;-74
2021/03/24 10:55:33;;;;;;;35.17;9.93;;;281.80;1408.00;;;;;;4972976;28;20026;-74
2021/03/24 10:58:01;;;;;;;17.50;10.15;;;281.90;1356.80;;;;;;5004733;28;20054;-75
2021/03/24 11:00:42;;;;;;;20.17;11.90;;;307.20;1305.60;;;;;;5014369;28;20037;-73
2021/03/24 11:03:11;;;;;;;23.35;12.35;;;307.20;1305.60;;;;;;5028163;28;20025;-72
2021/03/24 11:05:45;;;;;;;17.23;8.75;;;282.30;1356.80;;;;;;5042137;28;20013;-74
2021/03/24 11:08:32;;;;;;;12.48;7.78;;;282.50;1305.60;;;;;;5041754;28;20021;-75
2021/03/24 11:11:16;;;;;;;;;;;307.80;1228.80;;;;;;5054435;28;20104;-84
2021/03/24 11:13:54;;;;;;;13.77;7.82;;;308.10;1203.20;;;;;;5036704;28;20016;-87
2021/03/24 11:16:24;;;;;;;24.98;10.40;;;308.10;1228.80;;;;;;5053959;28;20029;-76
2021/03/24 11:18:54;;;;;;;17.45;11.30;;;307.50;1254.40;;;;;;5035960;28;20413;-76
2021/03/24 11:21:24;;;;;;;9.55;6.28;;;307.80;1254.40;;;;;;5053731;28;20048;-76
2021/03/24 11:23:53;;;;;;;13.25;7.30;;;333.00;1126.40;;;;;;5053572;28;20025;-76
2021/03/24 11:26:41;;;;;;;7.60;4.07;;;332.80;998.40;;;;;;5036181;28;20056;-75
2021/03/24 11:29:11;;;;;;;7.55;4.40;;;333.50;972.80;;;;;;5053328;28;20105;-75
2021/03/24 11:31:52;;;;;;;14.32;8.05;;;358.50;972.80;;;;;;5053885;28;20021;-74
2021/03/24 11:34:27;;;;;;;13.40;6.20;;;333.60;1024.00;;;;;;5052824;28;20044;-80
2021/03/24 11:37:18;;;;;;;10.20;4.80;;;307.90;1075.20;;;;;;5049884;28;20072;-75
2021/03/24 11:39:53;;;;;;;9.00;5.38;;;307.60;972.80;;;;;;4953093;29;20373;-84
2021/03/24 11:42:21;;;;;;;9.68;4.40;;;307.30;1075.20;;;;;;4953511;29;20086;-85
2021/03/24 11:44:50;;;;;;;5.03;2.40;;;307.30;1049.60;;;;;;4960236;28;20106;-74
2021/03/24 11:47:34;;;;;;;5.03;2.03;;;307.20;896.00;;;;;;4958038;28;20126;-74
2021/03/24 11:50:16;;;;;;;10.50;3.88;;;307.30;870.40;;;;;;4959961;28;20042;-75
2021/03/24 11:52:59;;;;;;;5.35;3.08;;;307.20;896.00;;;;;;4962240;28;20070;-75
2021/03/24 11:55:51;;;;;;;8.63;3.40;;;307.50;870.40;;;;;;4959208;28;20054;-74
2021/03/24 11:58:17;;;;;;;10.93;5.78;;;307.70;870.40;;;;;;4958709;28;20054;-74
2021/03/24 12:01:10;;;;;;;8.38;4.55;;;307.90;896.00;;;;;;4947187;28;20403;-75
2021/03/24 12:03:54;;;;;;;10.35;5.25;;;308.10;921.60;;;;;;4934437;28;20031;-75
2021/03/24 12:06:43;;;;;;;7.32;3.95;;;332.90;998.40;;;;;;4954799;28;20082;-75
2021/03/24 12:09:23;;;;;;;5.47;3.00;;;333.20;998.40;;;;;;4958938;28;20022;-74
2021/03/24 12:11:50;;;;;;;7.30;3.50;;;333.10;870.40;;;;;;4956187;28;20095;-84
2021/03/24 12:14:18;;;;;;;9.35;2.78;;;333.10;819.20;;;;;;4962433;28;20022;-76
2021/03/24 12:16:49;;;;;;;4.43;2.72;;;358.50;742.40;;;;;;5002041;28;20535;-75
2021/03/24 12:19:24;;;;;;;7.60;2.85;;;359.00;742.40;;;;;;5042438;28;20061;-79
2021/03/24 12:21:54;;;;;;;8.30;2.88;;;359.10;742.40;;;;;;5040949;28;20033;-77
2021/03/24 12:24:39;;;;;;;6.47;4.00;;;358.60;742.40;;;;;;5041592;28;20100;-79
2021/03/24 12:27:16;;;;;;;9.35;4.45;;;358.90;844.80;;;;;;5020702;28;20129;-79
2021/03/24 12:29:56;;;;;;;;;;;358.90;870.40;;;;;;5032812;28;20013;-75
2021/03/24 12:32:26;;;;;;;14.85;7.13;;;358.60;1100.80;;;;;;5032626;28;19944;-76
2021/03/24 12:34:53;;;;;;;12.55;6.13;;;333.30;1177.60;;;;;;5040266;28;20029;-76
2021/03/24 12:37:24;;;;;;;9.93;5.55;;;333.30;1126.40;;;;;;5023650;28;20400;-83
2021/03/24 12:39:51;;;;;;;9.40;6.13;;;333.10;1075.20;;;;;;5030399;28;20026;-76
2021/03/24 12:42:33;;;;;;;13.25;6.65;;;358.40;1126.40;;;;;;5024944;28;20099;-75
2021/03/24 12:45:01;;;;;;;9.15;5.80;;;358.40;1100.80;;;;;;5032413;28;20104;-75
2021/03/24 12:47:39;;;;;;;11.23;5.82;;;358.40;1126.40;;;;;;5030728;28;20033;-74
2021/03/24 12:50:18;;;;;;;11.32;6.38;;;358.70;1100.80;;;;;;5032063;28;20473;-74
2021/03/24 12:53:14;;;;;;;9.52;6.00;;;333.70;1152.00;;;;;;5032093;28;20030;-76
2021/03/24 12:55:40;;;;;;;8.90;4.78;;;333.30;1177.60;;;;;;5030862;28;20033;-74
2021/03/24 12:58:14;;;;;;;11.68;5.35;;;308.10;1075.20;;;;;;5031739;28;20512;-74
2021/03/24 13:00:52;;;;;;;9.45;4.85;;;333.10;1075.20;;;;;;5031799;28;20025;-74
2021/03/24 13:03:45;;;;;;;9.52;5.40;;;332.90;1126.40;;;;;;5031699;28;20155;-74